Time;durP1;ratioP1;P1;durP2;ratioP2;P2;SDS_P1;SDS_P2;PMS_P1;PMS_P2;Temp;Humidity;BMP_temperature;BMP_pressure;BME280_temperature;BME280_humidity;BME280_pressure;Samples;Min_cycle;Max_cycle;Signal;HPM_P1;HPM_P2
2022/11/29 00:01:32;;;;;;;157.47;26.80;;;9.30;99.90;;;;;;5036052;28;20213;-68
2022/11/29 00:03:59;;;;;;;166.80;27.17;;;9.30;99.90;;;;;;5045391;28;20201;-66
2022/11/29 00:06:29;;;;;;;158.10;26.63;;;9.40;99.90;;;;;;5038423;28;20296;-67
2022/11/29 00:08:59;;;;;;;170.17;29.93;;;9.40;99.90;;;;;;5042898;28;20702;-68
2022/11/29 00:14:17;;;;;;;175.47;27.37;;;9.40;99.90;;;;;;5042383;28;20248;-66
2022/11/29 00:16:48;;;;;;;169.40;28.40;;;9.40;99.90;;;;;;5038595;28;20301;-66
2022/11/29 00:19:15;;;;;;;188.20;29.87;;;9.40;99.90;;;;;;5036833;28;20210;-67
2022/11/29 00:21:42;;;;;;;169.17;28.33;;;9.40;99.90;;;;;;5040048;28;20290;-66
2022/11/29 00:24:09;;;;;;;190.03;28.33;;;9.40;99.90;;;;;;5043736;28;20292;-66
2022/11/29 00:26:36;;;;;;;172.33;27.90;;;9.30;99.90;;;;;;5040286;28;20229;-67
2022/11/29 00:29:03;;;;;;;181.33;26.80;;;9.30;99.90;;;;;;5042001;28;20724;-68
2022/11/29 00:31:32;;;;;;;166.20;28.00;;;9.30;99.90;;;;;;5037434;28;20733;-69
2022/11/29 00:34:05;;;;;;;153.93;26.50;;;9.40;99.90;;;;;;5041330;28;20197;-67
2022/11/29 00:36:33;;;;;;;159.90;27.43;;;9.30;99.90;;;;;;5035868;28;20209;-67
2022/11/29 00:39:02;;;;;;;164.90;27.40;;;9.30;99.90;;;;;;5045373;28;20206;-67
2022/11/29 00:41:29;;;;;;;205.97;29.70;;;9.30;99.90;;;;;;5035280;28;20311;-67
2022/11/29 00:43:59;;;;;;;229.00;30.53;;;9.30;99.90;;;;;;5036892;28;20623;-67
2022/11/29 00:46:25;;;;;;;313.53;35.20;;;9.30;99.90;;;;;;5035953;28;20627;-67
2022/11/29 00:48:52;;;;;;;207.70;32.47;;;9.30;99.90;;;;;;5038646;28;20582;-68
2022/11/29 00:51:19;;;;;;;184.90;30.10;;;9.30;99.90;;;;;;5046164;28;20202;-67
2022/11/29 00:53:46;;;;;;;277.27;36.63;;;9.30;99.90;;;;;;5043645;28;20339;-67
2022/11/29 00:56:12;;;;;;;247.57;34.23;;;9.30;99.90;;;;;;5024641;28;20206;-67
2022/11/29 00:58:42;;;;;;;234.80;32.63;;;9.30;99.90;;;;;;5040635;28;20299;-67
2022/11/29 01:01:10;;;;;;;269.60;32.83;;;9.20;99.90;;;;;;5043484;28;20315;-66
2022/11/29 01:03:36;;;;;;;288.13;35.00;;;9.20;99.90;;;;;;5041653;28;20205;-67
2022/11/29 01:06:09;;;;;;;233.57;32.43;;;9.20;99.90;;;;;;5029882;28;20259;-67
2022/11/29 01:08:36;;;;;;;229.97;32.30;;;9.20;99.90;;;;;;5038850;28;20341;-67
2022/11/29 01:11:22;;;;;;;233.20;34.57;;;9.20;99.90;;;;;;5034005;28;20288;-66
2022/11/29 01:13:50;;;;;;;161.63;31.03;;;9.20;99.90;;;;;;5042164;28;20201;-68
2022/11/29 01:16:17;;;;;;;208.77;31.23;;;9.30;99.90;;;;;;5037239;28;20208;-67
2022/11/29 01:18:44;;;;;;;207.77;32.10;;;9.30;99.90;;;;;;5037898;28;20241;-66
2022/11/29 01:21:17;;;;;;;184.57;30.23;;;9.20;99.90;;;;;;5039636;28;20223;-68
2022/11/29 01:23:44;;;;;;;168.90;29.17;;;9.20;99.90;;;;;;5025008;28;20205;-67
2022/11/29 01:26:14;;;;;;;174.70;29.40;;;9.20;99.90;;;;;;5034523;28;20201;-68
2022/11/29 01:28:43;;;;;;;169.67;28.63;;;9.20;99.90;;;;;;5040196;28;20351;-66
2022/11/29 01:31:14;;;;;;;161.87;28.03;;;9.20;99.90;;;;;;5040247;28;20211;-67
2022/11/29 01:33:41;;;;;;;155.53;26.43;;;9.20;99.90;;;;;;5027669;28;20209;-68
2022/11/29 01:36:11;;;;;;;160.27;29.83;;;9.20;99.90;;;;;;5031386;28;20654;-67
2022/11/29 01:38:38;;;;;;;143.07;26.50;;;9.20;99.90;;;;;;5041608;28;20246;-67
2022/11/29 01:41:13;;;;;;;135.43;26.37;;;9.20;99.90;;;;;;5034221;28;20201;-67
2022/11/29 01:44:01;;;;;;;156.40;28.10;;;9.30;99.90;;;;;;5040244;28;20212;-68
2022/11/29 01:46:33;;;;;;;151.17;27.40;;;9.20;99.90;;;;;;5041490;28;20214;-68
2022/11/29 01:49:19;;;;;;;153.60;26.37;;;9.20;99.90;;;;;;5024523;28;20232;-67
2022/11/29 01:51:59;;;;;;;163.90;28.77;;;9.30;99.90;;;;;;5044141;28;20201;-67
2022/11/29 01:54:28;;;;;;;138.07;25.03;;;9.30;99.90;;;;;;5041533;28;20235;-67
2022/11/29 01:56:57;;;;;;;159.57;29.37;;;9.30;99.90;;;;;;5040920;28;20229;-67
2022/11/29 01:59:28;;;;;;;132.23;27.67;;;9.30;99.90;;;;;;5036899;28;20251;-67
2022/11/29 02:02:04;;;;;;;161.13;27.50;;;9.30;99.90;;;;;;5041345;28;20205;-67
2022/11/29 02:04:34;;;;;;;170.13;27.93;;;9.30;99.90;;;;;;5039980;28;20277;-68
2022/11/29 02:07:01;;;;;;;141.93;24.60;;;9.30;99.90;;;;;;5041734;28;20227;-67
2022/11/29 02:09:28;;;;;;;149.40;26.40;;;9.30;99.90;;;;;;5044015;28;20640;-67
2022/11/29 02:12:10;;;;;;;147.13;25.33;;;9.30;99.90;;;;;;5019197;28;20431;-67
2022/11/29 02:15:04;;;;;;;136.70;28.67;;;9.30;99.90;;;;;;5039932;28;20299;-67
2022/11/29 02:17:46;;;;;;;138.47;26.20;;;9.30;99.90;;;;;;5038609;28;20193;-67
2022/11/29 02:20:34;;;;;;;153.87;25.07;;;9.30;99.90;;;;;;5032629;28;20746;-67
2022/11/29 02:23:16;;;;;;;166.70;28.07;;;9.30;99.90;;;;;;5035180;28;20292;-67
2022/11/29 02:26:05;;;;;;;181.70;28.63;;;9.30;99.90;;;;;;5034645;28;20568;-68
2022/11/29 02:29:07;;;;;;;168.13;27.37;;;9.30;99.90;;;;;;5032675;28;20244;-67
2022/11/29 02:31:53;;;;;;;182.37;29.27;;;9.30;99.90;;;;;;5037028;28;20288;-67
2022/11/29 02:34:31;;;;;;;208.77;31.80;;;9.20;99.90;;;;;;5035538;28;20193;-68
2022/11/29 02:37:36;;;;;;;191.50;28.73;;;9.30;99.90;;;;;;5039362;28;20751;-66
2022/11/29 02:40:26;;;;;;;214.17;32.57;;;9.20;99.90;;;;;;5017755;28;20297;-67
2022/11/29 02:43:25;;;;;;;211.20;33.40;;;9.20;99.90;;;;;;5018531;28;20990;-67
2022/11/29 02:45:52;;;;;;;235.27;33.23;;;9.20;99.90;;;;;;5026013;28;20301;-67
2022/11/29 02:48:51;;;;;;;222.37;32.70;;;9.20;99.90;;;;;;5038166;28;20250;-66
2022/11/29 02:51:41;;;;;;;230.73;31.67;;;9.20;99.90;;;;;;5045319;28;20312;-67
2022/11/29 02:54:33;;;;;;;201.73;32.50;;;9.20;99.90;;;;;;5058132;28;20761;-68
2022/11/29 02:57:36;;;;;;;193.53;30.77;;;9.20;99.90;;;;;;5038748;28;20301;-65
2022/11/29 03:00:12;;;;;;;172.37;28.90;;;9.20;99.90;;;;;;5031693;28;20219;-66
2022/11/29 03:02:50;;;;;;;184.43;30.63;;;9.20;99.90;;;;;;5039515;28;20215;-67
2022/11/29 03:05:41;;;;;;;205.40;30.97;;;9.30;99.90;;;;;;5035101;28;20292;-67
2022/11/29 03:08:24;;;;;;;174.03;29.87;;;9.30;99.90;;;;;;5031620;28;20217;-66
2022/11/29 03:11:02;;;;;;;169.50;29.23;;;9.20;99.90;;;;;;5036251;28;20293;-67
2022/11/29 03:13:32;;;;;;;201.87;30.07;;;9.20;99.90;;;;;;5038512;28;20250;-66
2022/11/29 03:16:25;;;;;;;191.17;31.00;;;9.20;99.90;;;;;;5037341;28;20677;-66
2022/11/29 03:19:27;;;;;;;228.53;32.93;;;9.20;99.90;;;;;;5031308;28;20233;-67
2022/11/29 03:21:58;;;;;;;254.23;33.17;;;9.20;99.90;;;;;;5041225;28;20218;-68
2022/11/29 03:24:41;;;;;;;207.87;31.43;;;9.20;99.90;;;;;;5042703;28;20355;-67
2022/11/29 03:27:15;;;;;;;279.10;37.90;;;9.20;99.90;;;;;;5033336;28;20229;-68
2022/11/29 03:29:55;;;;;;;267.20;34.67;;;9.20;99.90;;;;;;5033886;28;20783;-68
2022/11/29 03:32:33;;;;;;;201.87;31.63;;;9.20;99.90;;;;;;5037877;28;20214;-67
2022/11/29 03:35:02;;;;;;;196.23;31.23;;;9.20;99.90;;;;;;5042657;28;20201;-68
2022/11/29 03:37:40;;;;;;;231.63;33.43;;;9.20;99.90;;;;;;5052004;28;20261;-69
2022/11/29 03:40:33;;;;;;;231.90;31.50;;;9.20;99.90;;;;;;5021663;28;20215;-68
2022/11/29 03:43:06;;;;;;;193.57;30.73;;;9.30;99.90;;;;;;5037617;28;20304;-67
2022/11/29 03:45:49;;;;;;;193.30;31.57;;;9.30;99.90;;;;;;5036392;28;20205;-66
2022/11/29 03:48:40;;;;;;;198.43;31.57;;;9.20;99.90;;;;;;5027908;28;20235;-68
2022/11/29 03:51:15;;;;;;;200.43;30.93;;;9.20;99.90;;;;;;5021571;28;20590;-68
2022/11/29 03:53:58;;;;;;;215.07;33.13;;;9.20;99.90;;;;;;5041564;28;20672;-67
2022/11/29 03:56:34;;;;;;;208.87;31.53;;;9.20;99.90;;;;;;5043187;28;20240;-67
2022/11/29 03:59:41;;;;;;;215.13;32.27;;;9.20;99.90;;;;;;5035161;28;20208;-66
2022/11/29 04:02:33;;;;;;;183.37;30.83;;;9.20;99.90;;;;;;5044076;28;20223;-67
2022/11/29 04:05:17;;;;;;;310.87;35.93;;;9.20;99.90;;;;;;5044395;28;20216;-66
2022/11/29 04:07:46;;;;;;;303.63;37.77;;;9.20;99.90;;;;;;5034342;28;20662;-67
2022/11/29 04:10:30;;;;;;;328.57;40.20;;;9.20;99.90;;;;;;5045494;28;20889;-67
2022/11/29 04:13:29;;;;;;;273.90;35.63;;;9.20;99.90;;;;;;5034502;28;20232;-67
2022/11/29 04:16:15;;;;;;;316.03;36.70;;;9.20;99.90;;;;;;5042126;28;20207;-67
2022/11/29 04:19:06;;;;;;;278.17;35.97;;;9.20;99.90;;;;;;5038130;28;20324;-68
2022/11/29 04:21:51;;;;;;;272.53;35.57;;;9.20;99.90;;;;;;5040240;28;20284;-68
2022/11/29 04:24:36;;;;;;;274.03;37.73;;;9.20;99.90;;;;;;5042689;28;20523;-66
2022/11/29 04:27:27;;;;;;;270.40;36.57;;;9.30;99.90;;;;;;5041271;28;20225;-68
2022/11/29 04:30:08;;;;;;;321.07;39.30;;;9.30;99.90;;;;;;5041576;28;20232;-68
2022/11/29 04:32:53;;;;;;;265.30;37.60;;;9.30;99.90;;;;;;5030234;28;20193;-67
2022/11/29 04:35:37;;;;;;;331.57;40.37;;;9.30;99.90;;;;;;5042506;28;20235;-66
2022/11/29 04:38:33;;;;;;;273.17;36.67;;;9.20;99.90;;;;;;5036313;28;20709;-67
2022/11/29 04:41:16;;;;;;;275.53;35.97;;;9.20;99.90;;;;;;5039802;28;20652;-67
2022/11/29 04:44:21;;;;;;;279.50;35.73;;;9.20;99.90;;;;;;5044208;28;20204;-67
2022/11/29 04:46:58;;;;;;;219.80;32.17;;;9.20;99.90;;;;;;5040867;28;20209;-66
2022/11/29 04:49:44;;;;;;;259.37;33.50;;;9.20;99.90;;;;;;5016452;28;20230;-68
2022/11/29 04:52:39;;;;;;;235.77;32.33;;;9.10;99.90;;;;;;5041490;28;20218;-66
2022/11/29 04:55:43;;;;;;;213.00;32.67;;;9.10;99.90;;;;;;5040832;28;20209;-67
2022/11/29 04:58:48;;;;;;;283.63;30.97;;;9.20;99.90;;;;;;5032143;28;20272;-68
2022/11/29 05:01:25;;;;;;;158.00;25.30;;;9.10;99.90;;;;;;5021419;28;20200;-67
2022/11/29 05:04:13;;;;;;;176.33;26.30;;;9.10;99.90;;;;;;5046821;28;20263;-67
2022/11/29 05:07:06;;;;;;;243.00;29.40;;;9.10;99.90;;;;;;5040881;28;20301;-66
2022/11/29 05:09:43;;;;;;;260.90;29.93;;;9.10;99.90;;;;;;5040498;28;20237;-67
2022/11/29 05:12:21;;;;;;;211.53;28.13;;;9.00;99.90;;;;;;5044225;28;20299;-68
2022/11/29 05:15:19;;;;;;;211.30;27.03;;;9.00;99.90;;;;;;5037645;28;20299;-67
2022/11/29 05:18:08;;;;;;;267.70;29.27;;;9.00;99.90;;;;;;5038987;28;20201;-68
2022/11/29 05:20:35;;;;;;;203.83;28.80;;;9.00;99.90;;;;;;5038136;28;20212;-67
2022/11/29 05:23:20;;;;;;;144.47;23.43;;;8.90;99.90;;;;;;5042271;28;20292;-68
2022/11/29 05:25:58;;;;;;;141.70;23.77;;;9.00;99.90;;;;;;5023671;28;20198;-68
2022/11/29 05:28:51;;;;;;;143.37;23.47;;;9.00;99.90;;;;;;5032768;28;20653;-67
2022/11/29 05:31:43;;;;;;;199.30;25.27;;;9.00;99.90;;;;;;5041532;28;20673;-67
2022/11/29 05:34:27;;;;;;;192.47;23.77;;;9.00;99.90;;;;;;5039266;28;20295;-66
2022/11/29 05:37:25;;;;;;;153.37;20.50;;;8.90;99.90;;;;;;5042851;28;20235;-67
2022/11/29 05:40:26;;;;;;;123.93;21.33;;;8.90;99.90;;;;;;5023296;28;20633;-67
2022/11/29 05:43:40;;;;;;;113.80;20.50;;;8.90;99.90;;;;;;5039995;28;20246;-67
2022/11/29 05:46:16;;;;;;;96.80;18.57;;;8.90;99.90;;;;;;5017494;28;20202;-68
2022/11/29 05:48:44;;;;;;;119.30;20.83;;;8.90;99.90;;;;;;5014515;28;20748;-67
2022/11/29 05:51:19;;;;;;;106.80;20.87;;;8.90;99.90;;;;;;5027931;28;20607;-68
2022/11/29 05:53:57;;;;;;;175.63;21.70;;;8.90;99.90;;;;;;5033898;28;20752;-66
2022/11/29 05:56:47;;;;;;;137.30;20.30;;;8.90;99.90;;;;;;5040573;28;20315;-67
2022/11/29 05:59:22;;;;;;;170.90;23.07;;;8.90;99.90;;;;;;5024134;28;20219;-67
2022/11/29 06:02:05;;;;;;;157.90;21.93;;;8.90;99.90;;;;;;5039858;28;20278;-67
2022/11/29 06:04:56;;;;;;;172.60;21.57;;;8.90;99.90;;;;;;5042878;28;20544;-67
2022/11/29 06:07:36;;;;;;;125.20;20.50;;;8.90;99.90;;;;;;5054976;28;20204;-66
2022/11/29 06:10:09;;;;;;;137.63;20.13;;;8.90;99.90;;;;;;5042804;28;20391;-67
2022/11/29 06:12:37;;;;;;;103.03;18.10;;;8.80;99.90;;;;;;5039198;28;20233;-67
2022/11/29 06:15:22;;;;;;;111.27;18.13;;;8.80;99.90;;;;;;5038389;28;20295;-67
2022/11/29 06:18:05;;;;;;;103.43;19.50;;;8.80;99.90;;;;;;5042849;28;20303;-67
2022/11/29 06:20:32;;;;;;;107.23;16.73;;;8.70;99.90;;;;;;5038906;28;20208;-67
2022/11/29 06:23:30;;;;;;;119.43;18.67;;;8.70;99.90;;;;;;5041622;28;20683;-67
2022/11/29 06:26:22;;;;;;;104.67;18.27;;;8.80;99.90;;;;;;5040098;28;20209;-66
2022/11/29 06:29:35;;;;;;;95.93;16.80;;;8.80;99.90;;;;;;5038009;28;20735;-67
2022/11/29 06:32:50;;;;;;;127.93;19.90;;;8.70;99.90;;;;;;5043647;28;20640;-67
2022/11/29 06:35:46;;;;;;;116.57;16.73;;;8.70;99.90;;;;;;4984005;28;20309;-67
2022/11/29 06:38:24;;;;;;;113.93;17.53;;;8.70;99.90;;;;;;5039339;28;20685;-68
2022/11/29 06:40:53;;;;;;;144.90;17.23;;;8.70;99.90;;;;;;5042012;28;20211;-68
2022/11/29 06:43:28;;;;;;;143.37;19.13;;;8.70;99.90;;;;;;5039743;28;20220;-66
2022/11/29 06:46:12;;;;;;;117.00;17.90;;;8.70;99.90;;;;;;5035544;28;20306;-68
2022/11/29 06:48:57;;;;;;;118.13;18.67;;;8.70;99.90;;;;;;5037291;28;20231;-68
2022/11/29 06:51:34;;;;;;;129.60;18.50;;;8.70;99.90;;;;;;5044904;28;20215;-68
2022/11/29 06:54:10;;;;;;;116.30;17.77;;;8.70;99.90;;;;;;5040769;28;20460;-66
2022/11/29 06:56:47;;;;;;;116.83;19.83;;;8.70;99.90;;;;;;5025857;28;20254;-67
2022/11/29 06:59:29;;;;;;;159.07;24.33;;;8.70;99.90;;;;;;5040986;28;20847;-67
2022/11/29 07:02:36;;;;;;;170.73;23.27;;;8.90;99.90;;;;;;5037169;28;20288;-66
2022/11/29 07:05:28;;;;;;;205.63;23.07;;;8.90;99.90;;;;;;5039788;28;20289;-67
2022/11/29 07:07:59;;;;;;;168.27;20.13;;;8.90;99.90;;;;;;5036008;28;20531;-67
2022/11/29 07:10:28;;;;;;;132.50;19.37;;;8.80;99.90;;;;;;5022619;28;20260;-66
2022/11/29 07:12:55;;;;;;;155.57;19.77;;;8.80;99.90;;;;;;5032094;28;20617;-67
2022/11/29 07:15:22;;;;;;;131.33;17.67;;;8.70;99.90;;;;;;5035210;28;20680;-67
2022/11/29 07:18:13;;;;;;;119.63;16.80;;;8.70;99.90;;;;;;5034046;28;20208;-67
2022/11/29 07:20:57;;;;;;;128.33;17.20;;;8.70;99.90;;;;;;5044797;28;20211;-67
2022/11/29 07:24:02;;;;;;;179.17;18.53;;;8.70;99.90;;;;;;5039649;28;20288;-67
2022/11/29 07:26:38;;;;;;;120.53;17.00;;;8.70;99.90;;;;;;5044538;28;20670;-67
2022/11/29 07:29:33;;;;;;;141.20;18.60;;;8.60;99.90;;;;;;5042076;28;20259;-67
2022/11/29 07:32:28;;;;;;;155.83;20.47;;;8.70;99.90;;;;;;5042260;28;20650;-68
2022/11/29 07:35:08;;;;;;;134.60;18.73;;;8.60;99.90;;;;;;5042842;28;20213;-67
2022/11/29 07:37:47;;;;;;;139.03;19.47;;;8.60;99.90;;;;;;5024790;28;20316;-67
2022/11/29 07:40:30;;;;;;;107.03;18.93;;;8.60;99.90;;;;;;5040782;28;20240;-67
2022/11/29 07:43:46;;;;;;;120.77;17.50;;;8.60;99.90;;;;;;5044576;28;20633;-67
2022/11/29 07:46:13;;;;;;;107.83;14.80;;;8.60;99.90;;;;;;5042751;28;20299;-68
2022/11/29 07:48:40;;;;;;;123.10;16.37;;;8.60;99.90;;;;;;5041598;28;20208;-67
2022/11/29 07:51:07;;;;;;;103.87;15.40;;;8.60;99.90;;;;;;5063743;28;20703;-67
2022/11/29 07:53:40;;;;;;;117.07;15.93;;;8.60;99.90;;;;;;5024660;28;20283;-66
2022/11/29 07:56:08;;;;;;;90.20;15.23;;;8.60;99.90;;;;;;5042308;28;20248;-67
2022/11/29 07:58:35;;;;;;;75.60;13.53;;;8.60;99.90;;;;;;5043607;28;20589;-67
2022/11/29 08:01:02;;;;;;;79.30;14.77;;;8.60;99.90;;;;;;5036586;28;20219;-67
2022/11/29 08:03:34;;;;;;;83.00;15.37;;;8.70;99.90;;;;;;5044826;28;20219;-67
2022/11/29 08:06:01;;;;;;;70.17;13.87;;;8.70;99.90;;;;;;5037578;28;20247;-67
2022/11/29 08:08:28;;;;;;;57.97;12.47;;;8.60;99.90;;;;;;5059814;28;20212;-69
2022/11/29 08:10:55;;;;;;;70.97;14.03;;;8.70;99.90;;;;;;5047700;28;20327;-66
2022/11/29 08:13:22;;;;;;;62.07;12.37;;;8.60;99.90;;;;;;5037918;28;20251;-66
2022/11/29 08:15:49;;;;;;;63.07;13.90;;;8.60;99.90;;;;;;5039295;28;20216;-67
2022/11/29 08:18:16;;;;;;;86.73;14.27;;;8.60;99.90;;;;;;5035340;28;20296;-67
2022/11/29 08:20:44;;;;;;;91.97;15.27;;;8.60;99.90;;;;;;5038534;28;20324;-67
2022/11/29 08:23:12;;;;;;;97.00;14.83;;;8.60;99.90;;;;;;5024046;28;20247;-67
2022/11/29 08:25:41;;;;;;;81.53;14.80;;;8.60;99.90;;;;;;5037231;28;20206;-67
2022/11/29 08:28:08;;;;;;;78.57;14.60;;;8.60;99.90;;;;;;5035168;28;20225;-67
2022/11/29 08:30:40;;;;;;;66.70;13.80;;;8.60;99.90;;;;;;5035427;28;20716;-68
2022/11/29 08:33:07;;;;;;;67.57;13.67;;;8.60;99.90;;;;;;5039858;28;20210;-68
2022/11/29 08:35:34;;;;;;;91.87;15.30;;;8.70;99.90;;;;;;5031560;28;20243;-67
2022/11/29 08:38:02;;;;;;;68.53;14.43;;;8.80;99.90;;;;;;5028722;28;20321;-68
2022/11/29 08:40:29;;;;;;;94.00;16.53;;;8.80;99.90;;;;;;5022181;28;20323;-68
2022/11/29 08:42:57;;;;;;;80.27;15.67;;;8.80;99.90;;;;;;5041823;28;20294;-67
2022/11/29 08:45:24;;;;;;;71.40;15.97;;;8.80;99.90;;;;;;5052835;28;20563;-67
2022/11/29 08:47:51;;;;;;;67.37;13.70;;;8.80;99.90;;;;;;5039004;28;20285;-67
2022/11/29 08:50:18;;;;;;;91.10;14.80;;;8.80;99.90;;;;;;5043011;28;20315;-67
2022/11/29 08:55:39;;;;;;;64.40;13.03;;;8.80;99.90;;;;;;5040339;28;20212;-67
2022/11/29 08:58:08;;;;;;;65.70;13.30;;;8.80;99.90;;;;;;5048344;28;20605;-67
2022/11/29 09:00:36;;;;;;;70.67;13.43;;;8.90;99.90;;;;;;5041798;28;20271;-66
2022/11/29 09:05:52;;;;;;;50.33;11.37;;;8.90;99.90;;;;;;5040367;28;20201;-68
2022/11/29 09:08:19;;;;;;;56.60;13.40;;;8.90;99.90;;;;;;5040908;28;20247;-68
2022/11/29 09:10:46;;;;;;;53.63;11.90;;;8.90;99.90;;;;;;5044961;28;20228;-67
2022/11/29 09:13:13;;;;;;;53.23;13.23;;;9.00;99.90;;;;;;5043703;28;20240;-68
2022/11/29 09:15:42;;;;;;;86.80;15.17;;;9.00;99.90;;;;;;5040525;28;20200;-67
2022/11/29 09:18:09;;;;;;;59.97;12.80;;;9.10;99.90;;;;;;5042348;28;20259;-68
2022/11/29 09:20:36;;;;;;;61.00;13.00;;;9.10;99.90;;;;;;5045831;28;20232;-68
2022/11/29 09:23:03;;;;;;;62.90;12.90;;;9.10;99.90;;;;;;5044499;28;20642;-66
2022/11/29 09:25:30;;;;;;;64.00;13.10;;;9.20;99.90;;;;;;5030329;28;20284;-66
2022/11/29 09:28:00;;;;;;;68.17;12.60;;;9.20;99.90;;;;;;5038721;28;20271;-68
2022/11/29 09:30:31;;;;;;;75.53;12.43;;;9.20;99.90;;;;;;5039585;28;20221;-69
2022/11/29 09:33:04;;;;;;;81.43;14.27;;;9.20;99.90;;;;;;5042114;28;20210;-67
2022/11/29 09:35:31;;;;;;;65.57;14.07;;;9.30;99.90;;;;;;5044012;28;20205;-67
2022/11/29 09:37:59;;;;;;;65.47;13.87;;;9.20;99.90;;;;;;5047041;28;20750;-66
2022/11/29 09:40:52;;;;;;;65.00;13.53;;;9.20;99.90;;;;;;5051168;28;20665;-68
2022/11/29 09:43:34;;;;;;;61.27;13.77;;;9.30;99.90;;;;;;5042485;28;20236;-70
2022/11/29 09:46:16;;;;;;;66.90;13.33;;;9.30;99.90;;;;;;5046586;28;20284;-67
2022/11/29 09:49:05;;;;;;;67.13;14.90;;;9.40;99.90;;;;;;5039389;28;20200;-67
2022/11/29 09:52:04;;;;;;;65.47;15.10;;;9.40;99.90;;;;;;5058510;28;20375;-66
2022/11/29 09:54:41;;;;;;;57.27;13.73;;;9.50;99.90;;;;;;5033526;28;20344;-68
2022/11/29 09:57:09;;;;;;;46.00;12.30;;;9.40;99.90;;;;;;5045981;28;20601;-68
2022/11/29 09:59:47;;;;;;;60.03;14.70;;;9.50;99.90;;;;;;5053210;28;20251;-68
2022/11/29 10:02:25;;;;;;;48.00;12.87;;;9.50;99.90;;;;;;5041762;28;20229;-68
2022/11/29 10:05:00;;;;;;;50.87;12.97;;;9.60;99.90;;;;;;5045831;28;20544;-67
2022/11/29 10:07:39;;;;;;;41.77;12.77;;;9.60;99.90;;;;;;5043180;28;20661;-68
2022/11/29 10:10:13;;;;;;;44.00;11.97;;;9.70;99.90;;;;;;5040862;28;20213;-67
2022/11/29 10:12:50;;;;;;;49.97;12.97;;;9.70;99.90;;;;;;5042269;28;20336;-67
2022/11/29 10:15:22;;;;;;;49.97;12.70;;;9.80;99.90;;;;;;5039161;28;20255;-68
2022/11/29 10:18:18;;;;;;;50.47;13.73;;;9.80;99.90;;;;;;5036555;28;20211;-68
2022/11/29 10:20:48;;;;;;;45.97;14.17;;;9.90;99.90;;;;;;5038522;28;20311;-67
2022/11/29 10:23:32;;;;;;;47.13;13.13;;;9.90;99.90;;;;;;5042480;28;20259;-67
2022/11/29 10:25:59;;;;;;;45.37;12.83;;;9.90;99.90;;;;;;5042042;28;20292;-67
2022/11/29 10:28:30;;;;;;;39.97;12.17;;;9.90;99.90;;;;;;5044436;28;20209;-68
2022/11/29 10:31:12;;;;;;;39.87;12.57;;;9.90;99.90;;;;;;5046822;28;20717;-68
2022/11/29 10:33:40;;;;;;;41.60;12.73;;;9.90;99.90;;;;;;5026767;28;20221;-66
2022/11/29 10:36:35;;;;;;;48.17;13.77;;;9.90;99.90;;;;;;5041901;28;20209;-69
2022/11/29 10:39:18;;;;;;;49.53;14.93;;;10.00;99.90;;;;;;5038886;28;20209;-67
2022/11/29 10:41:48;;;;;;;45.20;13.97;;;10.10;99.90;;;;;;5040148;28;20216;-68
2022/11/29 10:44:15;;;;;;;44.70;13.87;;;10.10;99.90;;;;;;5039210;28;20211;-68
2022/11/29 10:46:42;;;;;;;49.17;13.73;;;10.10;99.90;;;;;;5042891;28;20198;-67
2022/11/29 10:49:18;;;;;;;45.33;17.47;;;10.10;99.90;;;;;;5036527;28;20749;-67
2022/11/29 10:51:45;;;;;;;51.13;18.30;;;10.20;99.90;;;;;;5020382;28;20228;-68
2022/11/29 10:54:26;;;;;;;48.70;18.07;;;10.20;99.90;;;;;;5043878;28;20193;-66
2022/11/29 10:56:55;;;;;;;43.77;15.17;;;10.20;99.90;;;;;;5050131;28;20252;-68
2022/11/29 10:59:24;;;;;;;47.90;15.63;;;10.20;99.90;;;;;;5044142;28;20336;-67
2022/11/29 11:01:51;;;;;;;41.23;15.00;;;10.30;99.90;;;;;;5057606;28;20197;-67
2022/11/29 11:04:27;;;;;;;39.10;14.97;;;10.40;99.90;;;;;;5053781;28;20232;-67
2022/11/29 11:07:01;;;;;;;38.60;14.33;;;10.40;99.90;;;;;;5046832;28;20275;-67
2022/11/29 11:09:55;;;;;;;52.60;16.10;;;10.50;99.90;;;;;;5046969;28;20193;-68
2022/11/29 11:12:28;;;;;;;48.47;15.73;;;10.50;99.90;;;;;;5044976;28;20693;-67
2022/11/29 11:15:23;;;;;;;43.73;14.73;;;10.50;99.90;;;;;;5075554;28;20740;-67
2022/11/29 11:18:03;;;;;;;48.20;15.77;;;10.50;99.90;;;;;;5049510;28;20828;-68
2022/11/29 11:20:36;;;;;;;42.40;15.23;;;10.50;99.90;;;;;;5042705;28;20209;-68
2022/11/29 11:23:06;;;;;;;43.77;14.70;;;10.50;99.90;;;;;;5047329;28;20198;-67
2022/11/29 11:25:38;;;;;;;42.63;14.67;;;10.60;99.90;;;;;;5049280;28;20213;-67
2022/11/29 11:28:20;;;;;;;46.00;15.30;;;10.60;99.90;;;;;;5045968;28;20217;-68
2022/11/29 11:30:56;;;;;;;46.07;15.53;;;10.70;99.90;;;;;;5044934;28;20227;-66
2022/11/29 11:33:27;;;;;;;42.83;15.23;;;10.70;99.90;;;;;;5045481;28;20571;-66
2022/11/29 11:36:10;;;;;;;42.37;15.63;;;10.80;99.90;;;;;;5043570;28;20216;-67
2022/11/29 11:38:52;;;;;;;45.87;15.70;;;10.80;99.90;;;;;;5065826;28;20228;-67
2022/11/29 11:42:35;;;;;;;44.57;15.73;;;10.80;99.90;;;;;;5061097;28;20280;-67
2022/11/29 11:44:37;;;;;;;39.43;14.30;;;10.80;99.90;;;;;;5064511;28;20212;-67
2022/11/29 11:47:27;;;;;;;48.00;16.17;;;10.90;99.90;;;;;;5051153;28;20569;-67
2022/11/29 11:50:02;;;;;;;40.53;13.87;;;11.00;99.90;;;;;;5067421;28;20199;-67
2022/11/29 11:52:39;;;;;;;36.10;15.00;;;11.10;99.90;;;;;;5062320;28;20292;-67
2022/11/29 11:55:20;;;;;;;37.33;15.47;;;11.10;99.90;;;;;;5064949;28;20215;-67
2022/11/29 11:58:13;;;;;;;36.53;14.10;;;11.20;99.90;;;;;;5061814;28;20744;-68
2022/11/29 12:00:45;;;;;;;38.60;15.33;;;11.20;99.90;;;;;;5064289;28;20224;-67
2022/11/29 12:03:48;;;;;;;41.13;15.90;;;11.20;99.90;;;;;;5050859;28;20643;-66
2022/11/29 12:06:27;;;;;;;37.27;14.43;;;11.20;99.90;;;;;;5065129;28;20303;-67
2022/11/29 12:09:10;;;;;;;40.17;14.43;;;11.30;99.90;;;;;;5063820;28;20208;-68
2022/11/29 12:11:47;;;;;;;30.60;12.43;;;11.20;99.90;;;;;;5063887;28;20700;-68
2022/11/29 12:14:41;;;;;;;33.83;13.43;;;11.20;99.90;;;;;;5063608;28;20224;-67
2022/11/29 12:17:21;;;;;;;37.00;12.33;;;11.10;99.90;;;;;;5064955;28;20650;-69
2022/11/29 12:20:08;;;;;;;33.07;13.13;;;11.10;99.90;;;;;;5064310;28;20575;-67
2022/11/29 12:22:42;;;;;;;29.33;12.03;;;11.10;99.90;;;;;;5065950;28;20315;-67
2022/11/29 12:25:22;;;;;;;29.90;12.27;;;11.00;99.90;;;;;;5067367;28;20800;-68
2022/11/29 12:27:53;;;;;;;28.27;11.53;;;11.00;99.90;;;;;;5067400;28;20224;-68
2022/11/29 12:30:20;;;;;;;33.47;14.37;;;11.00;99.90;;;;;;5063756;28;20261;-68
2022/11/29 12:33:28;;;;;;;36.73;13.03;;;11.00;99.90;;;;;;5053067;28;20192;-68
2022/11/29 12:36:23;;;;;;;25.37;12.20;;;11.00;99.90;;;;;;5059294;28;20200;-67
2022/11/29 12:39:02;;;;;;;34.93;13.13;;;11.00;99.90;;;;;;5062399;28;20625;-69
2022/11/29 12:41:37;;;;;;;26.63;12.40;;;11.00;99.90;;;;;;5063268;28;20334;-67
2022/11/29 12:44:19;;;;;;;30.83;11.50;;;11.00;99.90;;;;;;5066503;28;20214;-67
2022/11/29 12:47:03;;;;;;;28.93;11.50;;;11.00;99.90;;;;;;5066791;28;20249;-67
2022/11/29 12:50:06;;;;;;;26.40;10.97;;;10.90;99.90;;;;;;5062546;28;20287;-68
2022/11/29 12:53:01;;;;;;;27.17;11.97;;;10.80;99.90;;;;;;5047649;28;20244;-67
2022/11/29 12:55:33;;;;;;;30.07;11.27;;;10.90;99.90;;;;;;5063520;28;20292;-67
2022/11/29 12:58:25;;;;;;;33.87;12.17;;;10.90;99.90;;;;;;5071694;28;20244;-67
2022/11/29 13:01:34;;;;;;;29.60;11.90;;;11.00;99.90;;;;;;5069178;28;20305;-67
2022/11/29 13:04:07;;;;;;;29.10;12.10;;;11.10;99.90;;;;;;5062573;28;20585;-68
2022/11/29 13:07:03;;;;;;;30.60;11.73;;;11.00;99.90;;;;;;5060800;28;20240;-68
2022/11/29 13:09:42;;;;;;;27.87;11.57;;;11.10;99.90;;;;;;5064851;28;20622;-67
2022/11/29 13:12:12;;;;;;;30.63;12.07;;;11.00;99.90;;;;;;5060401;28;20228;-67
2022/11/29 13:14:50;;;;;;;32.20;11.33;;;10.90;99.90;;;;;;5082658;28;20204;-67
2022/11/29 13:17:25;;;;;;;29.63;12.43;;;10.80;99.90;;;;;;5061011;28;20736;-68
2022/11/29 13:19:54;;;;;;;34.23;12.37;;;10.80;99.90;;;;;;5058829;28;20196;-67
2022/11/29 13:23:03;;;;;;;31.73;12.17;;;10.70;99.90;;;;;;5068130;28;20683;-68
2022/11/29 13:25:38;;;;;;;30.80;12.77;;;10.70;99.90;;;;;;5072972;28;20196;-69
2022/11/29 13:28:20;;;;;;;33.43;12.57;;;10.70;99.90;;;;;;5082190;28;20215;-68
2022/11/29 13:30:47;;;;;;;27.63;10.90;;;10.80;99.90;;;;;;5064495;28;20224;-67
2022/11/29 13:33:32;;;;;;;29.17;11.77;;;10.90;99.90;;;;;;5063701;28;20648;-68
2022/11/29 13:36:20;;;;;;;29.60;12.43;;;10.90;99.90;;;;;;5054591;28;20227;-67